sensor_id;sensor_type;location;lat;lon;timestamp;temperature;humidity
33067;DHT22;19428;49.024;8.366;2023-02-04T00:00:17;8.70;99.90
33067;DHT22;19428;49.024;8.366;2023-02-04T00:02:43;8.70;99.90
33067;DHT22;19428;49.024;8.366;2023-02-04T00:05:09;8.70;99.90
33067;DHT22;19428;49.024;8.366;2023-02-04T00:07:35;8.70;99.90
33067;DHT22;19428;49.024;8.366;2023-02-04T00:10:02;8.70;99.90
33067;DHT22;19428;49.024;8.366;2023-02-04T00:12:28;8.70;99.90
33067;DHT22;19428;49.024;8.366;2023-02-04T00:14:53;8.70;99.90
33067;DHT22;19428;49.024;8.366;2023-02-04T00:17:19;8.70;99.90
33067;DHT22;19428;49.024;8.366;2023-02-04T00:19:45;8.70;99.90
33067;DHT22;19428;49.024;8.366;2023-02-04T00:22:10;8.70;99.90
33067;DHT22;19428;49.024;8.366;2023-02-04T00:24:37;8.70;99.90
33067;DHT22;19428;49.024;8.366;2023-02-04T00:27:03;8.70;99.90
33067;DHT22;19428;49.024;8.366;2023-02-04T00:29:29;8.70;99.90
33067;DHT22;19428;49.024;8.366;2023-02-04T00:31:55;8.70;99.90
33067;DHT22;19428;49.024;8.366;2023-02-04T00:34:21;8.70;99.90
33067;DHT22;19428;49.024;8.366;2023-02-04T00:36:46;8.60;99.90
33067;DHT22;19428;49.024;8.366;2023-02-04T00:39:12;8.60;99.90
33067;DHT22;19428;49.024;8.366;2023-02-04T00:41:38;8.50;99.90
33067;DHT22;19428;49.024;8.366;2023-02-04T00:44:03;8.60;99.90
33067;DHT22;19428;49.024;8.366;2023-02-04T00:46:29;8.50;99.90
33067;DHT22;19428;49.024;8.366;2023-02-04T00:48:55;8.50;99.90
33067;DHT22;19428;49.024;8.366;2023-02-04T00:51:20;8.50;99.90
33067;DHT22;19428;49.024;8.366;2023-02-04T00:53:46;8.50;99.90
33067;DHT22;19428;49.024;8.366;2023-02-04T00:56:11;8.50;99.90
33067;DHT22;19428;49.024;8.366;2023-02-04T00:58:37;8.50;99.90
33067;DHT22;19428;49.024;8.366;2023-02-04T01:01:03;8.40;99.90
33067;DHT22;19428;49.024;8.366;2023-02-04T01:03:28;8.40;99.90
33067;DHT22;19428;49.024;8.366;2023-02-04T01:05:54;8.40;99.90
33067;DHT22;19428;49.024;8.366;2023-02-04T01:08:20;8.40;99.90
33067;DHT22;19428;49.024;8.366;2023-02-04T01:10:45;8.40;99.90
33067;DHT22;19428;49.024;8.366;2023-02-04T01:13:11;8.40;99.90
33067;DHT22;19428;49.024;8.366;2023-02-04T01:15:36;8.40;99.90
33067;DHT22;19428;49.024;8.366;2023-02-04T01:18:02;8.40;99.90
33067;DHT22;19428;49.024;8.366;2023-02-04T01:20:28;8.40;99.90
33067;DHT22;19428;49.024;8.366;2023-02-04T01:22:53;8.40;99.90
33067;DHT22;19428;49.024;8.366;2023-02-04T01:25:19;8.40;99.90
33067;DHT22;19428;49.024;8.366;2023-02-04T01:27:44;8.40;99.90
33067;DHT22;19428;49.024;8.366;2023-02-04T01:30:12;8.40;99.90
33067;DHT22;19428;49.024;8.366;2023-02-04T01:32:38;8.40;99.90
33067;DHT22;19428;49.024;8.366;2023-02-04T01:35:04;8.40;99.90
33067;DHT22;19428;49.024;8.366;2023-02-04T01:37:29;8.40;99.90
33067;DHT22;19428;49.024;8.366;2023-02-04T01:39:55;8.40;99.90
33067;DHT22;19428;49.024;8.366;2023-02-04T01:42:21;8.40;99.90
33067;DHT22;19428;49.024;8.366;2023-02-04T01:44:46;8.40;99.90
33067;DHT22;19428;49.024;8.366;2023-02-04T01:47:12;8.40;99.90
33067;DHT22;19428;49.024;8.366;2023-02-04T01:49:38;8.40;99.90
33067;DHT22;19428;49.024;8.366;2023-02-04T01:52:03;8.40;99.90
33067;DHT22;19428;49.024;8.366;2023-02-04T01:54:29;8.40;99.90
33067;DHT22;19428;49.024;8.366;2023-02-04T01:56:56;8.40;99.90
33067;DHT22;19428;49.024;8.366;2023-02-04T01:59:22;8.40;99.90
33067;DHT22;19428;49.024;8.366;2023-02-04T02:01:51;8.40;99.90
33067;DHT22;19428;49.024;8.366;2023-02-04T02:04:20;8.40;99.90
33067;DHT22;19428;49.024;8.366;2023-02-04T02:06:51;8.50;99.90
33067;DHT22;19428;49.024;8.366;2023-02-04T02:09:18;8.40;99.90
33067;DHT22;19428;49.024;8.366;2023-02-04T02:11:44;8.40;99.90
33067;DHT22;19428;49.024;8.366;2023-02-04T02:14:10;8.40;99.90
33067;DHT22;19428;49.024;8.366;2023-02-04T02:16:36;8.40;99.90
33067;DHT22;19428;49.024;8.366;2023-02-04T02:19:01;8.40;99.90
33067;DHT22;19428;49.024;8.366;2023-02-04T02:21:37;8.30;99.90
33067;DHT22;19428;49.024;8.366;2023-02-04T02:24:23;8.30;99.90
33067;DHT22;19428;49.024;8.366;2023-02-04T02:26:49;8.40;99.90
33067;DHT22;19428;49.024;8.366;2023-02-04T02:29:15;8.40;99.90
33067;DHT22;19428;49.024;8.366;2023-02-04T02:31:40;8.40;99.90
33067;DHT22;19428;49.024;8.366;2023-02-04T02:34:06;8.40;99.90
33067;DHT22;19428;49.024;8.366;2023-02-04T02:36:31;8.40;99.90
33067;DHT22;19428;49.024;8.366;2023-02-04T02:38:57;8.40;99.90
33067;DHT22;19428;49.024;8.366;2023-02-04T02:41:24;8.40;99.90
33067;DHT22;19428;49.024;8.366;2023-02-04T02:43:50;8.30;99.90
33067;DHT22;19428;49.024;8.366;2023-02-04T02:46:15;8.30;99.90
33067;DHT22;19428;49.024;8.366;2023-02-04T02:48:41;8.30;99.90
33067;DHT22;19428;49.024;8.366;2023-02-04T02:51:06;8.30;99.90
33067;DHT22;19428;49.024;8.366;2023-02-04T02:53:32;8.30;99.90
33067;DHT22;19428;49.024;8.366;2023-02-04T02:55:57;8.40;99.90
33067;DHT22;19428;49.024;8.366;2023-02-04T02:58:30;8.40;99.90
33067;DHT22;19428;49.024;8.366;2023-02-04T03:01:00;8.30;99.90
33067;DHT22;19428;49.024;8.366;2023-02-04T03:03:29;8.40;99.90
33067;DHT22;19428;49.024;8.366;2023-02-04T03:05:59;8.40;99.90
33067;DHT22;19428;49.024;8.366;2023-02-04T03:08:26;8.30;99.90
33067;DHT22;19428;49.024;8.366;2023-02-04T03:10:53;8.20;99.90
33067;DHT22;19428;49.024;8.366;2023-02-04T03:13:18;8.20;99.90
33067;DHT22;19428;49.024;8.366;2023-02-04T03:15:46;8.20;99.90
33067;DHT22;19428;49.024;8.366;2023-02-04T03:18:13;8.20;99.90
33067;DHT22;19428;49.024;8.366;2023-02-04T03:20:40;8.20;99.90
33067;DHT22;19428;49.024;8.366;2023-02-04T03:23:06;8.10;99.90
33067;DHT22;19428;49.024;8.366;2023-02-04T03:25:32;8.10;99.90
33067;DHT22;19428;49.024;8.366;2023-02-04T03:27:58;8.10;99.90
33067;DHT22;19428;49.024;8.366;2023-02-04T03:30:25;8.10;99.90
33067;DHT22;19428;49.024;8.366;2023-02-04T03:32:50;8.10;99.90
33067;DHT22;19428;49.024;8.366;2023-02-04T03:35:17;8.10;99.90
33067;DHT22;19428;49.024;8.366;2023-02-04T03:37:42;8.10;99.90
33067;DHT22;19428;49.024;8.366;2023-02-04T03:40:09;8.00;99.90
33067;DHT22;19428;49.024;8.366;2023-02-04T03:42:35;8.00;99.90
33067;DHT22;19428;49.024;8.366;2023-02-04T03:45:00;8.00;99.90
33067;DHT22;19428;49.024;8.366;2023-02-04T03:47:26;8.00;99.90
33067;DHT22;19428;49.024;8.366;2023-02-04T03:49:52;8.00;99.90
33067;DHT22;19428;49.024;8.366;2023-02-04T03:52:17;7.90;99.90
33067;DHT22;19428;49.024;8.366;2023-02-04T03:54:44;8.00;99.90
33067;DHT22;19428;49.024;8.366;2023-02-04T03:57:10;7.90;99.90
33067;DHT22;19428;49.024;8.366;2023-02-04T03:59:36;7.90;99.90
33067;DHT22;19428;49.024;8.366;2023-02-04T04:02:02;7.80;99.90
33067;DHT22;19428;49.024;8.366;2023-02-04T04:04:27;7.70;99.90
33067;DHT22;19428;49.024;8.366;2023-02-04T04:06:53;7.70;99.90
33067;DHT22;19428;49.024;8.366;2023-02-04T04:09:19;7.60;99.90
33067;DHT22;19428;49.024;8.366;2023-02-04T04:11:44;7.60;99.90
33067;DHT22;19428;49.024;8.366;2023-02-04T04:14:10;7.60;99.90
33067;DHT22;19428;49.024;8.366;2023-02-04T04:16:35;7.50;99.90
33067;DHT22;19428;49.024;8.366;2023-02-04T04:19:01;7.60;99.90
33067;DHT22;19428;49.024;8.366;2023-02-04T04:21:26;7.50;99.90
33067;DHT22;19428;49.024;8.366;2023-02-04T04:23:52;7.50;99.90
33067;DHT22;19428;49.024;8.366;2023-02-04T04:26:18;7.50;99.90
33067;DHT22;19428;49.024;8.366;2023-02-04T04:28:43;7.40;99.90
33067;DHT22;19428;49.024;8.366;2023-02-04T04:31:09;7.50;99.90
33067;DHT22;19428;49.024;8.366;2023-02-04T04:33:34;7.50;99.90
33067;DHT22;19428;49.024;8.366;2023-02-04T04:36:00;7.50;99.90
33067;DHT22;19428;49.024;8.366;2023-02-04T04:38:25;7.50;99.90
33067;DHT22;19428;49.024;8.366;2023-02-04T04:40:51;7.60;99.90
33067;DHT22;19428;49.024;8.366;2023-02-04T04:43:17;7.50;99.90
33067;DHT22;19428;49.024;8.366;2023-02-04T04:45:42;7.50;99.90
33067;DHT22;19428;49.024;8.366;2023-02-04T04:48:08;7.50;99.90
33067;DHT22;19428;49.024;8.366;2023-02-04T04:50:33;7.50;99.90
33067;DHT22;19428;49.024;8.366;2023-02-04T04:52:59;7.60;99.90
33067;DHT22;19428;49.024;8.366;2023-02-04T04:55:25;7.50;99.90
33067;DHT22;19428;49.024;8.366;2023-02-04T04:57:50;7.50;99.90
33067;DHT22;19428;49.024;8.366;2023-02-04T05:00:18;7.50;99.90
33067;DHT22;19428;49.024;8.366;2023-02-04T05:02:44;7.50;99.90
33067;DHT22;19428;49.024;8.366;2023-02-04T05:05:10;7.50;99.90
33067;DHT22;19428;49.024;8.366;2023-02-04T05:07:36;7.50;99.90
33067;DHT22;19428;49.024;8.366;2023-02-04T05:10:03;7.50;99.90
33067;DHT22;19428;49.024;8.366;2023-02-04T05:12:29;7.50;99.90
33067;DHT22;19428;49.024;8.366;2023-02-04T05:14:54;7.50;99.90
33067;DHT22;19428;49.024;8.366;2023-02-04T05:17:20;7.40;99.90
33067;DHT22;19428;49.024;8.366;2023-02-04T05:19:46;7.40;99.90
33067;DHT22;19428;49.024;8.366;2023-02-04T05:22:11;7.50;99.90
33067;DHT22;19428;49.024;8.366;2023-02-04T05:24:37;7.40;99.90
33067;DHT22;19428;49.024;8.366;2023-02-04T05:27:02;7.40;99.90
33067;DHT22;19428;49.024;8.366;2023-02-04T05:29:28;7.40;99.90
33067;DHT22;19428;49.024;8.366;2023-02-04T05:31:53;7.40;99.90
33067;DHT22;19428;49.024;8.366;2023-02-04T05:34:19;7.40;99.90
33067;DHT22;19428;49.024;8.366;2023-02-04T05:36:44;7.30;99.90
33067;DHT22;19428;49.024;8.366;2023-02-04T05:39:10;7.40;99.90
33067;DHT22;19428;49.024;8.366;2023-02-04T05:41:35;7.40;99.90
33067;DHT22;19428;49.024;8.366;2023-02-04T05:44:01;7.40;99.90
33067;DHT22;19428;49.024;8.366;2023-02-04T05:46:27;7.40;99.90
33067;DHT22;19428;49.024;8.366;2023-02-04T05:48:52;7.40;99.90
33067;DHT22;19428;49.024;8.366;2023-02-04T05:51:18;7.40;99.90
33067;DHT22;19428;49.024;8.366;2023-02-04T05:53:44;7.40;99.90
33067;DHT22;19428;49.024;8.366;2023-02-04T05:56:09;7.40;99.90
33067;DHT22;19428;49.024;8.366;2023-02-04T05:58:35;7.40;99.90
33067;DHT22;19428;49.024;8.366;2023-02-04T06:01:01;7.40;99.90
33067;DHT22;19428;49.024;8.366;2023-02-04T06:03:28;7.40;99.90
33067;DHT22;19428;49.024;8.366;2023-02-04T06:05:54;7.30;99.90
33067;DHT22;19428;49.024;8.366;2023-02-04T06:08:20;7.30;99.90
33067;DHT22;19428;49.024;8.366;2023-02-04T06:10:45;7.40;99.90
33067;DHT22;19428;49.024;8.366;2023-02-04T06:13:11;7.40;99.90
33067;DHT22;19428;49.024;8.366;2023-02-04T06:15:36;7.30;99.90
33067;DHT22;19428;49.024;8.366;2023-02-04T06:18:02;7.30;99.90
33067;DHT22;19428;49.024;8.366;2023-02-04T06:20:28;7.40;99.90
33067;DHT22;19428;49.024;8.366;2023-02-04T06:22:53;7.40;99.90
33067;DHT22;19428;49.024;8.366;2023-02-04T06:25:20;7.40;99.90
33067;DHT22;19428;49.024;8.366;2023-02-04T06:27:46;7.40;99.90
33067;DHT22;19428;49.024;8.366;2023-02-04T06:30:12;7.40;99.90
33067;DHT22;19428;49.024;8.366;2023-02-04T06:32:38;7.40;99.90
33067;DHT22;19428;49.024;8.366;2023-02-04T06:35:03;7.40;99.90
33067;DHT22;19428;49.024;8.366;2023-02-04T06:37:29;7.40;99.90
33067;DHT22;19428;49.024;8.366;2023-02-04T06:39:55;7.40;99.90
33067;DHT22;19428;49.024;8.366;2023-02-04T06:42:22;7.50;99.90
33067;DHT22;19428;49.024;8.366;2023-02-04T06:44:48;7.50;99.90
33067;DHT22;19428;49.024;8.366;2023-02-04T06:47:14;7.50;99.90
33067;DHT22;19428;49.024;8.366;2023-02-04T06:49:39;7.40;99.90
33067;DHT22;19428;49.024;8.366;2023-02-04T06:52:05;7.40;99.90
33067;DHT22;19428;49.024;8.366;2023-02-04T06:54:30;7.40;99.90
33067;DHT22;19428;49.024;8.366;2023-02-04T06:56:56;7.40;99.90
33067;DHT22;19428;49.024;8.366;2023-02-04T06:59:28;7.40;99.90
33067;DHT22;19428;49.024;8.366;2023-02-04T07:01:56;7.40;99.90
33067;DHT22;19428;49.024;8.366;2023-02-04T07:04:22;7.40;99.90
33067;DHT22;19428;49.024;8.366;2023-02-04T07:06:47;7.40;99.90
33067;DHT22;19428;49.024;8.366;2023-02-04T07:09:13;7.40;99.90
33067;DHT22;19428;49.024;8.366;2023-02-04T07:11:39;7.40;99.90
33067;DHT22;19428;49.024;8.366;2023-02-04T07:14:04;7.40;99.90
33067;DHT22;19428;49.024;8.366;2023-02-04T07:16:30;7.40;99.90
33067;DHT22;19428;49.024;8.366;2023-02-04T07:18:55;7.40;99.90
33067;DHT22;19428;49.024;8.366;2023-02-04T07:21:21;7.30;99.90
33067;DHT22;19428;49.024;8.366;2023-02-04T07:23:50;7.30;99.90
33067;DHT22;19428;49.024;8.366;2023-02-04T07:26:16;7.20;99.90
33067;DHT22;19428;49.024;8.366;2023-02-04T07:28:42;7.20;99.90
33067;DHT22;19428;49.024;8.366;2023-02-04T07:31:07;7.30;99.90
33067;DHT22;19428;49.024;8.366;2023-02-04T07:33:33;7.30;99.90
33067;DHT22;19428;49.024;8.366;2023-02-04T07:35:58;7.30;99.90
33067;DHT22;19428;49.024;8.366;2023-02-04T07:38:24;7.30;99.90
33067;DHT22;19428;49.024;8.366;2023-02-04T07:40:50;7.30;99.90
33067;DHT22;19428;49.024;8.366;2023-02-04T07:43:15;7.40;99.90
33067;DHT22;19428;49.024;8.366;2023-02-04T07:45:41;7.30;99.90
33067;DHT22;19428;49.024;8.366;2023-02-04T07:48:06;7.30;99.90
33067;DHT22;19428;49.024;8.366;2023-02-04T07:50:32;7.30;99.90
33067;DHT22;19428;49.024;8.366;2023-02-04T07:52:57;7.30;99.90
33067;DHT22;19428;49.024;8.366;2023-02-04T07:55:23;7.40;99.90
33067;DHT22;19428;49.024;8.366;2023-02-04T07:57:49;7.40;99.90
33067;DHT22;19428;49.024;8.366;2023-02-04T08:00:15;7.40;99.90
33067;DHT22;19428;49.024;8.366;2023-02-04T08:02:40;7.50;99.90
33067;DHT22;19428;49.024;8.366;2023-02-04T08:05:07;7.50;99.90
33067;DHT22;19428;49.024;8.366;2023-02-04T08:07:32;7.50;99.90
33067;DHT22;19428;49.024;8.366;2023-02-04T08:09:58;7.50;99.90
33067;DHT22;19428;49.024;8.366;2023-02-04T08:12:24;7.50;99.90
33067;DHT22;19428;49.024;8.366;2023-02-04T08:14:49;7.60;99.90
33067;DHT22;19428;49.024;8.366;2023-02-04T08:17:15;7.60;99.90
33067;DHT22;19428;49.024;8.366;2023-02-04T08:19:40;7.70;99.90
33067;DHT22;19428;49.024;8.366;2023-02-04T08:22:06;7.70;99.90
33067;DHT22;19428;49.024;8.366;2023-02-04T08:24:31;7.70;99.90
33067;DHT22;19428;49.024;8.366;2023-02-04T08:26:57;7.70;99.90
33067;DHT22;19428;49.024;8.366;2023-02-04T08:29:23;7.80;99.90
33067;DHT22;19428;49.024;8.366;2023-02-04T08:31:50;7.80;99.90
33067;DHT22;19428;49.024;8.366;2023-02-04T08:34:16;7.90;99.90
33067;DHT22;19428;49.024;8.366;2023-02-04T08:36:41;7.90;99.90
33067;DHT22;19428;49.024;8.366;2023-02-04T08:39:09;8.00;99.90
33067;DHT22;19428;49.024;8.366;2023-02-04T08:41:34;8.00;99.90
33067;DHT22;19428;49.024;8.366;2023-02-04T08:44:01;7.90;99.90
33067;DHT22;19428;49.024;8.366;2023-02-04T08:46:27;8.00;99.90
33067;DHT22;19428;49.024;8.366;2023-02-04T08:48:52;8.10;99.90
33067;DHT22;19428;49.024;8.366;2023-02-04T08:51:18;8.00;99.90
33067;DHT22;19428;49.024;8.366;2023-02-04T08:53:44;8.20;99.90
33067;DHT22;19428;49.024;8.366;2023-02-04T08:56:09;8.30;99.90
33067;DHT22;19428;49.024;8.366;2023-02-04T08:58:40;8.20;99.90
33067;DHT22;19428;49.024;8.366;2023-02-04T09:01:05;8.30;99.90
33067;DHT22;19428;49.024;8.366;2023-02-04T09:03:31;8.40;99.90
33067;DHT22;19428;49.024;8.366;2023-02-04T09:05:57;8.20;99.90
33067;DHT22;19428;49.024;8.366;2023-02-04T09:08:22;8.30;99.90
33067;DHT22;19428;49.024;8.366;2023-02-04T09:10:48;8.30;99.90
33067;DHT22;19428;49.024;8.366;2023-02-04T09:13:13;8.40;99.90
33067;DHT22;19428;49.024;8.366;2023-02-04T09:15:39;8.40;99.90
33067;DHT22;19428;49.024;8.366;2023-02-04T09:18:05;8.50;99.90
33067;DHT22;19428;49.024;8.366;2023-02-04T09:20:39;8.60;99.90
33067;DHT22;19428;49.024;8.366;2023-02-04T09:23:04;8.90;99.90
33067;DHT22;19428;49.024;8.366;2023-02-04T09:25:33;8.90;99.90
33067;DHT22;19428;49.024;8.366;2023-02-04T09:27:59;8.60;99.90
33067;DHT22;19428;49.024;8.366;2023-02-04T09:30:24;8.50;99.90
33067;DHT22;19428;49.024;8.366;2023-02-04T09:32:50;8.70;99.90
33067;DHT22;19428;49.024;8.366;2023-02-04T09:35:15;8.70;99.90
33067;DHT22;19428;49.024;8.366;2023-02-04T09:37:41;8.70;99.90
33067;DHT22;19428;49.024;8.366;2023-02-04T09:40:08;8.70;99.90
33067;DHT22;19428;49.024;8.366;2023-02-04T09:42:34;8.50;99.90
33067;DHT22;19428;49.024;8.366;2023-02-04T09:45:00;8.60;99.90
33067;DHT22;19428;49.024;8.366;2023-02-04T09:47:27;8.70;99.90
33067;DHT22;19428;49.024;8.366;2023-02-04T09:49:53;8.60;99.90
33067;DHT22;19428;49.024;8.366;2023-02-04T09:52:19;8.70;99.90
33067;DHT22;19428;49.024;8.366;2023-02-04T09:54:45;8.70;99.90
33067;DHT22;19428;49.024;8.366;2023-02-04T09:57:17;8.60;99.90
33067;DHT22;19428;49.024;8.366;2023-02-04T09:59:44;8.60;99.90
33067;DHT22;19428;49.024;8.366;2023-02-04T10:02:24;8.60;99.90
33067;DHT22;19428;49.024;8.366;2023-02-04T10:04:51;8.80;99.90
33067;DHT22;19428;49.024;8.366;2023-02-04T10:07:20;8.80;99.90
33067;DHT22;19428;49.024;8.366;2023-02-04T10:09:48;8.50;99.90
33067;DHT22;19428;49.024;8.366;2023-02-04T10:12:14;8.60;99.90
33067;DHT22;19428;49.024;8.366;2023-02-04T10:14:40;8.60;99.90
33067;DHT22;19428;49.024;8.366;2023-02-04T10:17:07;8.80;99.90
33067;DHT22;19428;49.024;8.366;2023-02-04T10:19:33;9.00;99.90
33067;DHT22;19428;49.024;8.366;2023-02-04T10:21:59;8.80;99.90
33067;DHT22;19428;49.024;8.366;2023-02-04T10:24:25;9.00;99.90
33067;DHT22;19428;49.024;8.366;2023-02-04T10:26:52;9.20;99.90
33067;DHT22;19428;49.024;8.366;2023-02-04T10:29:21;9.20;99.90
33067;DHT22;19428;49.024;8.366;2023-02-04T10:31:50;9.40;99.90
33067;DHT22;19428;49.024;8.366;2023-02-04T10:34:21;9.10;99.90
33067;DHT22;19428;49.024;8.366;2023-02-04T10:36:50;8.90;99.90
33067;DHT22;19428;49.024;8.366;2023-02-04T10:39:25;8.70;99.90
33067;DHT22;19428;49.024;8.366;2023-02-04T10:41:59;8.90;99.90
33067;DHT22;19428;49.024;8.366;2023-02-04T10:44:33;9.00;99.90
33067;DHT22;19428;49.024;8.366;2023-02-04T10:47:15;9.00;99.90
33067;DHT22;19428;49.024;8.366;2023-02-04T10:50:03;9.30;99.90
33067;DHT22;19428;49.024;8.366;2023-02-04T10:52:42;9.30;99.90
33067;DHT22;19428;49.024;8.366;2023-02-04T10:55:14;9.00;99.90
33067;DHT22;19428;49.024;8.366;2023-02-04T10:57:43;9.10;99.90
33067;DHT22;19428;49.024;8.366;2023-02-04T11:00:20;9.10;99.90
33067;DHT22;19428;49.024;8.366;2023-02-04T11:02:56;9.00;99.90
33067;DHT22;19428;49.024;8.366;2023-02-04T11:05:28;8.90;99.90
33067;DHT22;19428;49.024;8.366;2023-02-04T11:07:54;8.90;99.90
33067;DHT22;19428;49.024;8.366;2023-02-04T11:10:22;8.90;99.90
33067;DHT22;19428;49.024;8.366;2023-02-04T11:15:43;9.00;99.90
33067;DHT22;19428;49.024;8.366;2023-02-04T11:18:26;9.20;99.90
33067;DHT22;19428;49.024;8.366;2023-02-04T11:20:57;9.50;99.90
33067;DHT22;19428;49.024;8.366;2023-02-04T11:26:09;9.50;99.90
33067;DHT22;19428;49.024;8.366;2023-02-04T11:29:07;9.20;99.90
33067;DHT22;19428;49.024;8.366;2023-02-04T11:34:22;9.40;99.90
33067;DHT22;19428;49.024;8.366;2023-02-04T11:39:27;9.30;99.90
33067;DHT22;19428;49.024;8.366;2023-02-04T11:41:53;9.40;99.90
33067;DHT22;19428;49.024;8.366;2023-02-04T11:44:19;9.60;99.90
33067;DHT22;19428;49.024;8.366;2023-02-04T11:46:51;9.50;99.90
33067;DHT22;19428;49.024;8.366;2023-02-04T11:49:19;9.60;99.90
33067;DHT22;19428;49.024;8.366;2023-02-04T11:51:45;9.90;99.90
33067;DHT22;19428;49.024;8.366;2023-02-04T11:54:16;10.10;99.90
33067;DHT22;19428;49.024;8.366;2023-02-04T11:56:44;9.80;99.90
33067;DHT22;19428;49.024;8.366;2023-02-04T11:59:11;9.60;99.90
33067;DHT22;19428;49.024;8.366;2023-02-04T12:01:38;9.30;99.90
33067;DHT22;19428;49.024;8.366;2023-02-04T12:04:06;9.40;99.90
33067;DHT22;19428;49.024;8.366;2023-02-04T12:06:34;9.60;99.90
33067;DHT22;19428;49.024;8.366;2023-02-04T12:09:13;9.90;99.90
33067;DHT22;19428;49.024;8.366;2023-02-04T12:11:53;9.60;99.90
33067;DHT22;19428;49.024;8.366;2023-02-04T12:14:19;9.80;99.90
33067;DHT22;19428;49.024;8.366;2023-02-04T12:16:46;9.80;99.90
33067;DHT22;19428;49.024;8.366;2023-02-04T12:19:13;9.50;99.90
33067;DHT22;19428;49.024;8.366;2023-02-04T12:21:39;9.30;99.90
33067;DHT22;19428;49.024;8.366;2023-02-04T12:24:05;9.50;99.90
33067;DHT22;19428;49.024;8.366;2023-02-04T12:26:31;9.30;99.90
33067;DHT22;19428;49.024;8.366;2023-02-04T12:28:56;9.20;99.90
33067;DHT22;19428;49.024;8.366;2023-02-04T12:31:24;9.50;99.90
33067;DHT22;19428;49.024;8.366;2023-02-04T12:33:50;9.50;99.90
33067;DHT22;19428;49.024;8.366;2023-02-04T12:36:15;9.50;99.90
33067;DHT22;19428;49.024;8.366;2023-02-04T12:38:41;9.50;99.90
33067;DHT22;19428;49.024;8.366;2023-02-04T12:41:06;9.60;99.90
33067;DHT22;19428;49.024;8.366;2023-02-04T12:43:32;9.50;99.90
33067;DHT22;19428;49.024;8.366;2023-02-04T12:45:57;9.50;99.90
33067;DHT22;19428;49.024;8.366;2023-02-04T12:48:23;9.40;99.90
33067;DHT22;19428;49.024;8.366;2023-02-04T12:50:50;9.30;99.90
33067;DHT22;19428;49.024;8.366;2023-02-04T12:53:15;9.20;99.90
33067;DHT22;19428;49.024;8.366;2023-02-04T12:55:41;9.40;99.90
33067;DHT22;19428;49.024;8.366;2023-02-04T12:58:06;9.70;99.90
33067;DHT22;19428;49.024;8.366;2023-02-04T13:00:32;9.60;99.90
33067;DHT22;19428;49.024;8.366;2023-02-04T13:02:58;9.90;99.90
33067;DHT22;19428;49.024;8.366;2023-02-04T13:05:24;9.90;99.90
33067;DHT22;19428;49.024;8.366;2023-02-04T13:07:50;9.90;99.90
33067;DHT22;19428;49.024;8.366;2023-02-04T13:10:16;10.50;99.90
33067;DHT22;19428;49.024;8.366;2023-02-04T13:12:42;10.80;99.90
33067;DHT22;19428;49.024;8.366;2023-02-04T13:15:08;11.30;99.90
33067;DHT22;19428;49.024;8.366;2023-02-04T13:17:34;11.10;99.90
33067;DHT22;19428;49.024;8.366;2023-02-04T13:20:00;11.00;99.90
33067;DHT22;19428;49.024;8.366;2023-02-04T13:22:26;10.90;99.90
33067;DHT22;19428;49.024;8.366;2023-02-04T13:24:51;11.30;99.90
33067;DHT22;19428;49.024;8.366;2023-02-04T13:27:17;12.00;99.90
33067;DHT22;19428;49.024;8.366;2023-02-04T13:29:43;11.00;99.90
33067;DHT22;19428;49.024;8.366;2023-02-04T13:32:09;10.80;99.90
33067;DHT22;19428;49.024;8.366;2023-02-04T13:34:35;10.60;99.90
33067;DHT22;19428;49.024;8.366;2023-02-04T13:37:01;10.10;99.90
33067;DHT22;19428;49.024;8.366;2023-02-04T13:39:27;9.70;99.90
33067;DHT22;19428;49.024;8.366;2023-02-04T13:41:52;9.50;99.90
33067;DHT22;19428;49.024;8.366;2023-02-04T13:44:18;9.30;99.90
33067;DHT22;19428;49.024;8.366;2023-02-04T13:46:43;9.20;99.90
33067;DHT22;19428;49.024;8.366;2023-02-04T13:49:09;9.10;99.90
33067;DHT22;19428;49.024;8.366;2023-02-04T13:51:35;9.10;99.90
33067;DHT22;19428;49.024;8.366;2023-02-04T13:54:00;9.10;99.90
33067;DHT22;19428;49.024;8.366;2023-02-04T13:56:26;9.00;99.90
33067;DHT22;19428;49.024;8.366;2023-02-04T13:58:52;9.00;99.90
33067;DHT22;19428;49.024;8.366;2023-02-04T14:01:18;9.00;99.90
33067;DHT22;19428;49.024;8.366;2023-02-04T14:03:46;9.00;99.90
33067;DHT22;19428;49.024;8.366;2023-02-04T14:06:12;9.00;99.90
33067;DHT22;19428;49.024;8.366;2023-02-04T14:08:39;9.40;99.90
33067;DHT22;19428;49.024;8.366;2023-02-04T14:11:05;9.80;99.90
33067;DHT22;19428;49.024;8.366;2023-02-04T14:13:31;10.10;99.90
33067;DHT22;19428;49.024;8.366;2023-02-04T14:15:57;10.50;99.90
33067;DHT22;19428;49.024;8.366;2023-02-04T14:18:23;10.60;99.90
33067;DHT22;19428;49.024;8.366;2023-02-04T14:20:48;10.50;99.90
33067;DHT22;19428;49.024;8.366;2023-02-04T14:23:14;10.40;99.90
33067;DHT22;19428;49.024;8.366;2023-02-04T14:25:41;10.40;99.90
33067;DHT22;19428;49.024;8.366;2023-02-04T14:28:07;10.50;99.90
33067;DHT22;19428;49.024;8.366;2023-02-04T14:30:34;10.30;99.80
33067;DHT22;19428;49.024;8.366;2023-02-04T14:32:59;10.20;98.00
33067;DHT22;19428;49.024;8.366;2023-02-04T14:35:25;10.30;98.00
33067;DHT22;19428;49.024;8.366;2023-02-04T14:37:51;10.30;98.10
33067;DHT22;19428;49.024;8.366;2023-02-04T14:40:18;10.20;98.00
33067;DHT22;19428;49.024;8.366;2023-02-04T14:42:45;10.20;98.70
33067;DHT22;19428;49.024;8.366;2023-02-04T14:45:12;10.10;97.60
33067;DHT22;19428;49.024;8.366;2023-02-04T14:47:40;10.20;98.30
33067;DHT22;19428;49.024;8.366;2023-02-04T14:50:14;10.20;98.80
33067;DHT22;19428;49.024;8.366;2023-02-04T14:52:40;10.30;98.90
33067;DHT22;19428;49.024;8.366;2023-02-04T14:55:06;10.20;99.30
33067;DHT22;19428;49.024;8.366;2023-02-04T14:57:34;10.20;99.70
33067;DHT22;19428;49.024;8.366;2023-02-04T14:59:59;10.10;99.60
33067;DHT22;19428;49.024;8.366;2023-02-04T15:02:25;10.30;99.90
33067;DHT22;19428;49.024;8.366;2023-02-04T15:04:50;10.10;98.90
33067;DHT22;19428;49.024;8.366;2023-02-04T15:07:16;10.20;99.30
33067;DHT22;19428;49.024;8.366;2023-02-04T15:09:42;10.20;98.40
33067;DHT22;19428;49.024;8.366;2023-02-04T15:12:09;10.00;98.50
33067;DHT22;19428;49.024;8.366;2023-02-04T15:14:35;10.10;97.70
33067;DHT22;19428;49.024;8.366;2023-02-04T15:17:01;10.00;98.70
33067;DHT22;19428;49.024;8.366;2023-02-04T15:19:26;10.00;98.90
33067;DHT22;19428;49.024;8.366;2023-02-04T15:21:52;9.90;97.70
33067;DHT22;19428;49.024;8.366;2023-02-04T15:24:19;9.90;97.60
33067;DHT22;19428;49.024;8.366;2023-02-04T15:26:47;9.80;97.10
33067;DHT22;19428;49.024;8.366;2023-02-04T15:29:12;9.90;97.30
33067;DHT22;19428;49.024;8.366;2023-02-04T15:31:38;9.80;97.60
33067;DHT22;19428;49.024;8.366;2023-02-04T15:34:04;9.70;98.20
33067;DHT22;19428;49.024;8.366;2023-02-04T15:36:29;9.80;97.20
33067;DHT22;19428;49.024;8.366;2023-02-04T15:38:55;9.70;97.90
33067;DHT22;19428;49.024;8.366;2023-02-04T15:41:20;9.30;98.90
33067;DHT22;19428;49.024;8.366;2023-02-04T15:43:47;9.50;98.10
33067;DHT22;19428;49.024;8.366;2023-02-04T15:46:13;9.30;98.00
33067;DHT22;19428;49.024;8.366;2023-02-04T15:48:39;9.10;99.20
33067;DHT22;19428;49.024;8.366;2023-02-04T15:51:04;9.10;98.90